Observations for LUTON AIRPORT, United Kingdom (EGGW)

EGGW 211750Z 16005KT 130V200 0600 R08/1100 -RA FG OVC001 02/01 Q1006 RERA   
EGGW 211720Z 15007KT 1500 RA OVC001TCU 01/01 Q1006  
EGGW 211650Z AUTO 15008KT 2000 RA OVC001 01/01 Q1007
EGGW 211620Z AUTO 16007KT 1000 R08/P1500 RA VV/// 01/01 Q1007   
EGGW 211550Z AUTO 15010KT 0800 R08/1100 -RADZ FG OVC001 01/01 Q1007 
EGGW 211520Z AUTO 15011KT 2400 -RA OVC001 00/00 Q1008   
EGGW 211450Z AUTO 15011KT 3600 -RA OVC001/// //////TCU 00/00 Q1009  
EGGW 211420Z AUTO 14012KT 4700 -RA OVC002 00/00 Q1009   
EGGW 211350Z AUTO 14011KT 5000 -RADZ OVC002 00/00 Q1010 
EGGW 211320Z AUTO 14011KT 3900 -RADZ OVC002 00/00 Q1011 
EGGW 211250Z AUTO 14010KT 5000 -RASN OVC002/// //////TCU 00/00 Q1011
EGGW 211220Z AUTO 14009KT 1400 R08/1100 -SN OVC002/// //////CB 00/00 Q1012  
EGGW 211150Z AUTO 14008KT 0700 R08/0750 -SN OVC001/// //////TCU 00/00 Q1013 
EGGW 211120Z AUTO 14007KT 1200 R08/1300 -SN OVC001/// //////TCU 00/00 Q1013 
EGGW 211050Z AUTO 14008KT 2200 -SN OVC002 00/00 Q1013   
EGGW 211020Z AUTO 15007KT 2200 -PL OVC001 00/00 Q1014   
EGGW 210950Z AUTO 16006KT 0900 R26/1200 -SN OVC001 00/M00 Q1014 
EGGW 210920Z AUTO 16004KT 0650 R26/1100 -SN BKN001 OVC026 00/00 Q1014   
EGGW 210850Z AUTO 16004KT 1100 R26/P1500 -SN BKN001 OVC034 00/00 Q1015 RESG RERA
EGGW 210820Z AUTO VRB03KT 1600 BR BKN001 OVC042 00/M00 Q1015
EGGW 210750Z AUTO VRB03KT 1600 BR FEW001 SCT047 00/M00 Q1014
EGGW 210720Z AUTO 20004KT 1700 BR NCD 00/M00 Q1014  
EGGW 210650Z AUTO 21003KT 1600 BR NCD 00/M00 Q1014  
EGGW 210620Z AUTO VRB02KT 2300 BR NCD 00/M00 Q1014  
EGGW 210550Z AUTO 26004KT 1800 BR BKN002 00/M00 Q1013   
EGGW 210520Z AUTO 30003KT 2200 BR BKN002 00/M00 Q1013   
EGGW 210450Z AUTO 29003KT 2200 BR OVC002 00/M00 Q1013   
EGGW 210420Z AUTO 27005KT 2300 BR OVC002 00/M00 Q1013   
EGGW 210350Z AUTO 29006KT 2700 BR OVC002 00/M00 Q1013   
EGGW 210320Z AUTO 27005KT 2500 BR OVC002 00/M00 Q1013   
EGGW 210250Z AUTO 29009KT 2800 BR OVC002 M00/M01 Q1013  
EGGW 210220Z AUTO 29009KT 3300 BR OVC003 M00/M00 Q1013  
EGGW 210150Z AUTO 28010KT 3400 BR OVC003 00/M00 Q1013   
EGGW 210120Z AUTO 29009KT 2900 BR OVC003 00/M00 Q1012   
EGGW 210050Z AUTO 27008KT 3800 BR BKN003 00/M00 Q1012   
EGGW 210020Z AUTO 28007KT 3300 BR BKN002 OVC007 00/M00 Q1011
EGGW 202350Z AUTO 28006KT 2200 BR OVC002 00/00 Q1011
EGGW 202320Z AUTO 31008KT 2800 BR OVC002 01/00 Q1010
EGGW 202250Z AUTO 32008KT 4200 BR OVC003 01/00 Q1009
EGGW 202220Z AUTO 32007KT 6000 SCT003 01/00 Q1008   
EGGW 202150Z AUTO 32007KT 7000 BKN003 01/00 Q1008   
EGGW 202120Z AUTO 33008KT 4200 BR OVC002 01/01 Q1007
EGGW 202050Z 34009KT 7000 OVC003 01/01 Q1007
EGGW 202020Z 34007KT 9000 BKN003 OVC027 02/01 Q1006 
EGGW 201950Z AUTO 35008KT 9999 OVC003 02/01 Q1005   
EGGW 201920Z AUTO 01007KT 9999 BKN003 OVC025 01/01 Q1004
EGGW 201850Z 01008KT 6000 OVC003 02/01 Q1003
EGGW 201820Z 01008KT 3000 BR BKN001 OVC002 02/01 Q1003  
EGGW 201750Z AUTO 02009KT 8000 OVC002 02/01 Q1002   
EGGW 201720Z AUTO 02007KT 7000 OVC002 02/01 Q1001